sensor_id;sensor_type;location;lat;lon;timestamp;P1;durP1;ratioP1;P2;durP2;ratioP2
17650;SDS011;26663;59.302;18.082;2023-05-15T00:00:58;8.25;;;4.57;;
17650;SDS011;26663;59.302;18.082;2023-05-15T00:04:04;6.63;;;4.88;;
17650;SDS011;26663;59.302;18.082;2023-05-15T00:07:09;7.82;;;4.80;;
17650;SDS011;26663;59.302;18.082;2023-05-15T00:10:14;13.93;;;4.35;;
17650;SDS011;26663;59.302;18.082;2023-05-15T00:13:21;8.40;;;4.70;;
17650;SDS011;26663;59.302;18.082;2023-05-15T00:16:26;7.35;;;4.43;;
17650;SDS011;26663;59.302;18.082;2023-05-15T00:19:31;14.57;;;5.00;;
17650;SDS011;26663;59.302;18.082;2023-05-15T00:22:37;13.20;;;4.90;;
17650;SDS011;26663;59.302;18.082;2023-05-15T00:25:42;24.70;;;5.75;;
17650;SDS011;26663;59.302;18.082;2023-05-15T00:28:48;32.45;;;5.50;;
17650;SDS011;26663;59.302;18.082;2023-05-15T00:31:54;33.47;;;6.78;;
17650;SDS011;26663;59.302;18.082;2023-05-15T00:35:00;35.00;;;6.10;;
17650;SDS011;26663;59.302;18.082;2023-05-15T00:38:05;22.70;;;6.18;;
17650;SDS011;26663;59.302;18.082;2023-05-15T00:41:11;15.18;;;5.00;;
17650;SDS011;26663;59.302;18.082;2023-05-15T00:44:18;16.38;;;5.20;;
17650;SDS011;26663;59.302;18.082;2023-05-15T00:47:23;7.53;;;4.90;;
17650;SDS011;26663;59.302;18.082;2023-05-15T00:50:30;5.50;;;4.63;;
17650;SDS011;26663;59.302;18.082;2023-05-15T00:53:36;5.20;;;4.70;;
17650;SDS011;26663;59.302;18.082;2023-05-15T00:56:41;5.88;;;5.38;;
17650;SDS011;26663;59.302;18.082;2023-05-15T00:59:49;8.32;;;4.80;;
17650;SDS011;26663;59.302;18.082;2023-05-15T01:02:56;6.22;;;4.85;;
17650;SDS011;26663;59.302;18.082;2023-05-15T01:06:02;14.23;;;5.40;;
17650;SDS011;26663;59.302;18.082;2023-05-15T01:09:11;21.42;;;6.50;;
17650;SDS011;26663;59.302;18.082;2023-05-15T01:12:18;25.63;;;6.05;;
17650;SDS011;26663;59.302;18.082;2023-05-15T01:15:26;32.78;;;6.60;;
17650;SDS011;26663;59.302;18.082;2023-05-15T01:18:31;23.45;;;5.95;;
17650;SDS011;26663;59.302;18.082;2023-05-15T01:21:56;28.00;;;6.85;;
17650;SDS011;26663;59.302;18.082;2023-05-15T01:29:00;5.45;;;5.00;;
17650;SDS011;26663;59.302;18.082;2023-05-15T01:32:10;9.48;;;5.40;;
17650;SDS011;26663;59.302;18.082;2023-05-15T01:35:22;6.97;;;5.25;;
17650;SDS011;26663;59.302;18.082;2023-05-15T01:38:33;7.55;;;5.07;;
17650;SDS011;26663;59.302;18.082;2023-05-15T01:41:44;5.60;;;5.05;;
17650;SDS011;26663;59.302;18.082;2023-05-15T01:44:53;5.82;;;5.47;;
17650;SDS011;26663;59.302;18.082;2023-05-15T01:47:59;6.10;;;4.72;;
17650;SDS011;26663;59.302;18.082;2023-05-15T01:51:05;7.95;;;5.10;;
17650;SDS011;26663;59.302;18.082;2023-05-15T01:54:11;5.25;;;4.82;;
17650;SDS011;26663;59.302;18.082;2023-05-15T01:57:17;8.75;;;5.35;;
17650;SDS011;26663;59.302;18.082;2023-05-15T02:00:25;12.50;;;5.40;;
17650;SDS011;26663;59.302;18.082;2023-05-15T02:03:30;17.38;;;5.68;;
17650;SDS011;26663;59.302;18.082;2023-05-15T02:06:36;13.80;;;6.03;;
17650;SDS011;26663;59.302;18.082;2023-05-15T02:09:43;12.77;;;5.00;;
17650;SDS011;26663;59.302;18.082;2023-05-15T02:12:50;8.90;;;5.32;;
17650;SDS011;26663;59.302;18.082;2023-05-15T02:15:58;8.65;;;5.57;;
17650;SDS011;26663;59.302;18.082;2023-05-15T02:19:03;7.68;;;5.53;;
17650;SDS011;26663;59.302;18.082;2023-05-15T02:22:08;7.03;;;5.30;;
17650;SDS011;26663;59.302;18.082;2023-05-15T02:25:15;6.45;;;5.47;;
17650;SDS011;26663;59.302;18.082;2023-05-15T02:28:21;5.80;;;5.28;;
17650;SDS011;26663;59.302;18.082;2023-05-15T02:31:44;7.95;;;5.80;;
17650;SDS011;26663;59.302;18.082;2023-05-15T02:34:55;5.85;;;5.30;;
17650;SDS011;26663;59.302;18.082;2023-05-15T02:38:07;5.80;;;5.40;;
17650;SDS011;26663;59.302;18.082;2023-05-15T02:41:15;6.35;;;5.63;;
17650;SDS011;26663;59.302;18.082;2023-05-15T02:44:20;6.43;;;5.70;;
17650;SDS011;26663;59.302;18.082;2023-05-15T02:47:27;6.25;;;5.75;;
17650;SDS011;26663;59.302;18.082;2023-05-15T02:50:34;6.47;;;5.88;;
17650;SDS011;26663;59.302;18.082;2023-05-15T02:53:40;10.98;;;6.60;;
17650;SDS011;26663;59.302;18.082;2023-05-15T02:56:45;6.47;;;5.97;;
17650;SDS011;26663;59.302;18.082;2023-05-15T02:59:51;9.98;;;5.63;;
17650;SDS011;26663;59.302;18.082;2023-05-15T03:02:59;6.53;;;5.65;;
17650;SDS011;26663;59.302;18.082;2023-05-15T03:06:04;6.18;;;5.53;;
17650;SDS011;26663;59.302;18.082;2023-05-15T03:09:10;6.78;;;6.00;;
17650;SDS011;26663;59.302;18.082;2023-05-15T03:12:15;6.78;;;6.18;;
17650;SDS011;26663;59.302;18.082;2023-05-15T03:15:20;6.20;;;5.72;;
17650;SDS011;26663;59.302;18.082;2023-05-15T03:18:27;7.97;;;6.00;;
17650;SDS011;26663;59.302;18.082;2023-05-15T03:21:33;6.22;;;5.60;;
17650;SDS011;26663;59.302;18.082;2023-05-15T03:24:38;5.85;;;5.55;;
17650;SDS011;26663;59.302;18.082;2023-05-15T03:27:43;11.02;;;6.45;;
17650;SDS011;26663;59.302;18.082;2023-05-15T03:30:49;13.85;;;7.20;;
17650;SDS011;26663;59.302;18.082;2023-05-15T03:33:55;7.57;;;6.13;;
17650;SDS011;26663;59.302;18.082;2023-05-15T03:37:00;9.43;;;7.22;;
17650;SDS011;26663;59.302;18.082;2023-05-15T03:40:07;16.90;;;6.53;;
17650;SDS011;26663;59.302;18.082;2023-05-15T03:43:12;6.47;;;5.97;;
17650;SDS011;26663;59.302;18.082;2023-05-15T03:46:18;9.45;;;5.85;;
17650;SDS011;26663;59.302;18.082;2023-05-15T03:49:25;8.77;;;6.10;;
17650;SDS011;26663;59.302;18.082;2023-05-15T03:52:30;10.02;;;5.70;;
17650;SDS011;26663;59.302;18.082;2023-05-15T03:55:35;5.93;;;5.63;;
17650;SDS011;26663;59.302;18.082;2023-05-15T03:58:41;6.70;;;6.13;;
17650;SDS011;26663;59.302;18.082;2023-05-15T04:01:46;6.38;;;5.78;;
17650;SDS011;26663;59.302;18.082;2023-05-15T04:05:09;6.15;;;5.65;;
17650;SDS011;26663;59.302;18.082;2023-05-15T04:08:14;6.35;;;5.80;;
17650;SDS011;26663;59.302;18.082;2023-05-15T04:11:19;8.00;;;6.07;;
17650;SDS011;26663;59.302;18.082;2023-05-15T04:14:25;6.30;;;5.68;;
17650;SDS011;26663;59.302;18.082;2023-05-15T04:17:31;7.53;;;5.40;;
17650;SDS011;26663;59.302;18.082;2023-05-15T04:20:37;9.85;;;4.93;;
17650;SDS011;26663;59.302;18.082;2023-05-15T04:23:42;13.73;;;6.00;;
17650;SDS011;26663;59.302;18.082;2023-05-15T04:26:47;8.95;;;6.05;;
17650;SDS011;26663;59.302;18.082;2023-05-15T04:29:53;10.77;;;6.00;;
17650;SDS011;26663;59.302;18.082;2023-05-15T04:32:58;11.80;;;6.03;;
17650;SDS011;26663;59.302;18.082;2023-05-15T04:36:05;11.43;;;5.80;;
17650;SDS011;26663;59.302;18.082;2023-05-15T04:39:11;6.50;;;5.43;;
17650;SDS011;26663;59.302;18.082;2023-05-15T04:42:16;11.70;;;5.35;;
17650;SDS011;26663;59.302;18.082;2023-05-15T04:45:21;15.88;;;6.00;;
17650;SDS011;26663;59.302;18.082;2023-05-15T04:48:27;7.10;;;5.50;;
17650;SDS011;26663;59.302;18.082;2023-05-15T04:51:34;7.47;;;5.03;;
17650;SDS011;26663;59.302;18.082;2023-05-15T04:54:39;7.47;;;5.55;;
17650;SDS011;26663;59.302;18.082;2023-05-15T04:57:45;17.20;;;5.50;;
17650;SDS011;26663;59.302;18.082;2023-05-15T05:00:50;11.30;;;5.40;;
17650;SDS011;26663;59.302;18.082;2023-05-15T05:03:55;9.30;;;4.63;;
17650;SDS011;26663;59.302;18.082;2023-05-15T05:07:03;6.90;;;4.57;;
17650;SDS011;26663;59.302;18.082;2023-05-15T05:10:09;5.30;;;4.65;;
17650;SDS011;26663;59.302;18.082;2023-05-15T05:13:14;8.75;;;5.10;;
17650;SDS011;26663;59.302;18.082;2023-05-15T05:16:19;7.53;;;4.80;;
17650;SDS011;26663;59.302;18.082;2023-05-15T05:19:25;9.32;;;5.43;;
17650;SDS011;26663;59.302;18.082;2023-05-15T05:22:32;13.13;;;5.50;;
17650;SDS011;26663;59.302;18.082;2023-05-15T05:25:37;5.68;;;4.93;;
17650;SDS011;26663;59.302;18.082;2023-05-15T05:28:42;4.68;;;4.30;;
17650;SDS011;26663;59.302;18.082;2023-05-15T05:31:47;10.98;;;5.15;;
17650;SDS011;26663;59.302;18.082;2023-05-15T05:34:52;5.68;;;5.28;;
17650;SDS011;26663;59.302;18.082;2023-05-15T05:38:04;7.90;;;5.10;;
17650;SDS011;26663;59.302;18.082;2023-05-15T05:41:11;5.07;;;4.60;;
17650;SDS011;26663;59.302;18.082;2023-05-15T05:44:16;8.90;;;4.68;;
17650;SDS011;26663;59.302;18.082;2023-05-15T05:47:21;9.02;;;5.25;;
17650;SDS011;26663;59.302;18.082;2023-05-15T05:50:26;5.75;;;4.65;;
17650;SDS011;26663;59.302;18.082;2023-05-15T05:53:33;13.32;;;4.10;;
17650;SDS011;26663;59.302;18.082;2023-05-15T05:56:41;6.65;;;4.45;;
17650;SDS011;26663;59.302;18.082;2023-05-15T05:59:46;8.38;;;4.72;;
17650;SDS011;26663;59.302;18.082;2023-05-15T06:02:52;12.27;;;4.60;;
17650;SDS011;26663;59.302;18.082;2023-05-15T06:06:00;5.88;;;4.40;;
17650;SDS011;26663;59.302;18.082;2023-05-15T06:09:09;10.45;;;4.93;;
17650;SDS011;26663;59.302;18.082;2023-05-15T06:12:14;16.92;;;4.70;;
17650;SDS011;26663;59.302;18.082;2023-05-15T06:15:22;11.35;;;4.55;;
17650;SDS011;26663;59.302;18.082;2023-05-15T06:18:28;17.27;;;4.00;;
17650;SDS011;26663;59.302;18.082;2023-05-15T06:21:33;9.45;;;4.50;;
17650;SDS011;26663;59.302;18.082;2023-05-15T06:24:39;16.45;;;4.90;;
17650;SDS011;26663;59.302;18.082;2023-05-15T06:27:45;7.45;;;4.45;;
17650;SDS011;26663;59.302;18.082;2023-05-15T06:30:50;10.00;;;4.57;;
17650;SDS011;26663;59.302;18.082;2023-05-15T06:33:55;14.98;;;4.95;;
17650;SDS011;26663;59.302;18.082;2023-05-15T06:37:00;6.90;;;4.15;;
17650;SDS011;26663;59.302;18.082;2023-05-15T06:40:08;5.78;;;3.97;;
17650;SDS011;26663;59.302;18.082;2023-05-15T06:43:13;8.23;;;4.10;;
17650;SDS011;26663;59.302;18.082;2023-05-15T06:46:19;12.43;;;4.68;;
17650;SDS011;26663;59.302;18.082;2023-05-15T06:49:24;5.57;;;4.35;;
17650;SDS011;26663;59.302;18.082;2023-05-15T06:52:29;12.45;;;4.70;;
17650;SDS011;26663;59.302;18.082;2023-05-15T06:55:36;18.42;;;4.90;;
17650;SDS011;26663;59.302;18.082;2023-05-15T06:58:41;12.80;;;4.10;;
17650;SDS011;26663;59.302;18.082;2023-05-15T07:01:46;6.25;;;3.88;;
17650;SDS011;26663;59.302;18.082;2023-05-15T07:04:51;13.50;;;4.32;;
17650;SDS011;26663;59.302;18.082;2023-05-15T07:07:56;14.68;;;4.30;;
17650;SDS011;26663;59.302;18.082;2023-05-15T07:11:03;11.75;;;4.10;;
17650;SDS011;26663;59.302;18.082;2023-05-15T07:14:08;5.28;;;3.60;;
17650;SDS011;26663;59.302;18.082;2023-05-15T07:17:14;9.27;;;4.07;;
17650;SDS011;26663;59.302;18.082;2023-05-15T07:20:19;9.75;;;4.20;;
17650;SDS011;26663;59.302;18.082;2023-05-15T07:23:26;5.47;;;4.05;;
17650;SDS011;26663;59.302;18.082;2023-05-15T07:26:33;12.48;;;4.72;;
17650;SDS011;26663;59.302;18.082;2023-05-15T07:29:52;9.43;;;4.00;;
17650;SDS011;26663;59.302;18.082;2023-05-15T07:32:57;5.65;;;4.13;;
17650;SDS011;26663;59.302;18.082;2023-05-15T07:36:02;4.65;;;4.00;;
17650;SDS011;26663;59.302;18.082;2023-05-15T07:39:08;5.05;;;3.90;;
17650;SDS011;26663;59.302;18.082;2023-05-15T07:42:14;9.68;;;4.40;;
17650;SDS011;26663;59.302;18.082;2023-05-15T07:45:19;6.88;;;4.07;;
17650;SDS011;26663;59.302;18.082;2023-05-15T07:48:25;4.85;;;4.00;;
17650;SDS011;26663;59.302;18.082;2023-05-15T07:51:30;4.10;;;3.25;;
17650;SDS011;26663;59.302;18.082;2023-05-15T07:54:35;5.32;;;4.40;;
17650;SDS011;26663;59.302;18.082;2023-05-15T07:57:42;5.90;;;3.72;;
17650;SDS011;26663;59.302;18.082;2023-05-15T08:00:54;21.55;;;3.83;;
17650;SDS011;26663;59.302;18.082;2023-05-15T08:03:59;11.60;;;3.05;;
17650;SDS011;26663;59.302;18.082;2023-05-15T08:07:05;8.23;;;3.35;;
17650;SDS011;26663;59.302;18.082;2023-05-15T08:10:10;8.50;;;3.88;;
17650;SDS011;26663;59.302;18.082;2023-05-15T08:13:17;4.18;;;3.08;;
17650;SDS011;26663;59.302;18.082;2023-05-15T08:16:22;3.33;;;2.80;;
17650;SDS011;26663;59.302;18.082;2023-05-15T08:19:27;3.15;;;2.95;;
17650;SDS011;26663;59.302;18.082;2023-05-15T08:22:35;4.00;;;2.80;;
17650;SDS011;26663;59.302;18.082;2023-05-15T08:25:40;5.00;;;3.05;;
17650;SDS011;26663;59.302;18.082;2023-05-15T08:28:46;5.97;;;3.63;;
17650;SDS011;26663;59.302;18.082;2023-05-15T08:31:51;3.78;;;2.83;;
17650;SDS011;26663;59.302;18.082;2023-05-15T08:34:56;5.80;;;3.20;;
17650;SDS011;26663;59.302;18.082;2023-05-15T08:38:02;11.80;;;3.15;;
17650;SDS011;26663;59.302;18.082;2023-05-15T08:41:10;7.90;;;2.95;;
17650;SDS011;26663;59.302;18.082;2023-05-15T08:44:42;16.20;;;3.40;;
17650;SDS011;26663;59.302;18.082;2023-05-15T08:47:48;7.93;;;3.00;;
17650;SDS011;26663;59.302;18.082;2023-05-15T08:50:53;10.60;;;3.28;;
17650;SDS011;26663;59.302;18.082;2023-05-15T08:53:59;3.67;;;2.95;;
17650;SDS011;26663;59.302;18.082;2023-05-15T08:57:05;3.25;;;3.15;;
17650;SDS011;26663;59.302;18.082;2023-05-15T09:00:13;10.38;;;2.80;;
17650;SDS011;26663;59.302;18.082;2023-05-15T09:03:19;8.80;;;3.30;;
17650;SDS011;26663;59.302;18.082;2023-05-15T09:06:26;7.35;;;2.90;;
17650;SDS011;26663;59.302;18.082;2023-05-15T09:09:32;8.27;;;3.13;;
17650;SDS011;26663;59.302;18.082;2023-05-15T09:12:39;11.60;;;3.63;;
17650;SDS011;26663;59.302;18.082;2023-05-15T09:15:48;7.55;;;3.22;;
17650;SDS011;26663;59.302;18.082;2023-05-15T09:18:53;2.97;;;2.83;;
17650;SDS011;26663;59.302;18.082;2023-05-15T09:22:01;6.40;;;3.03;;
17650;SDS011;26663;59.302;18.082;2023-05-15T09:25:35;4.03;;;3.50;;
17650;SDS011;26663;59.302;18.082;2023-05-15T09:28:41;8.68;;;3.08;;
17650;SDS011;26663;59.302;18.082;2023-05-15T09:31:47;4.95;;;3.05;;
17650;SDS011;26663;59.302;18.082;2023-05-15T09:34:53;3.30;;;3.00;;
17650;SDS011;26663;59.302;18.082;2023-05-15T09:37:59;5.28;;;3.22;;
17650;SDS011;26663;59.302;18.082;2023-05-15T09:41:05;7.97;;;3.13;;
17650;SDS011;26663;59.302;18.082;2023-05-15T09:44:17;4.70;;;3.28;;
17650;SDS011;26663;59.302;18.082;2023-05-15T09:47:25;6.93;;;3.45;;
17650;SDS011;26663;59.302;18.082;2023-05-15T09:50:32;13.43;;;3.55;;
17650;SDS011;26663;59.302;18.082;2023-05-15T09:53:38;8.30;;;3.10;;
17650;SDS011;26663;59.302;18.082;2023-05-15T09:56:43;3.53;;;3.22;;
17650;SDS011;26663;59.302;18.082;2023-05-15T09:59:48;11.10;;;3.42;;
17650;SDS011;26663;59.302;18.082;2023-05-15T10:02:57;7.78;;;3.63;;
17650;SDS011;26663;59.302;18.082;2023-05-15T10:06:05;3.63;;;3.15;;
17650;SDS011;26663;59.302;18.082;2023-05-15T10:09:10;5.43;;;3.55;;
17650;SDS011;26663;59.302;18.082;2023-05-15T10:12:16;3.88;;;3.00;;
17650;SDS011;26663;59.302;18.082;2023-05-15T10:15:24;8.05;;;3.30;;
17650;SDS011;26663;59.302;18.082;2023-05-15T10:18:31;7.57;;;3.13;;
17650;SDS011;26663;59.302;18.082;2023-05-15T10:21:38;4.30;;;3.22;;
17650;SDS011;26663;59.302;18.082;2023-05-15T10:24:44;6.07;;;3.25;;
17650;SDS011;26663;59.302;18.082;2023-05-15T10:27:50;4.72;;;3.00;;
17650;SDS011;26663;59.302;18.082;2023-05-15T10:30:56;4.55;;;3.13;;
17650;SDS011;26663;59.302;18.082;2023-05-15T10:34:07;8.10;;;3.47;;
17650;SDS011;26663;59.302;18.082;2023-05-15T10:37:13;9.20;;;3.25;;
17650;SDS011;26663;59.302;18.082;2023-05-15T10:40:18;7.75;;;3.25;;
17650;SDS011;26663;59.302;18.082;2023-05-15T10:43:24;4.57;;;3.38;;
17650;SDS011;26663;59.302;18.082;2023-05-15T10:46:31;8.00;;;3.40;;
17650;SDS011;26663;59.302;18.082;2023-05-15T10:49:40;3.88;;;3.33;;
17650;SDS011;26663;59.302;18.082;2023-05-15T10:52:48;3.97;;;3.28;;
17650;SDS011;26663;59.302;18.082;2023-05-15T10:55:54;4.90;;;3.40;;
17650;SDS011;26663;59.302;18.082;2023-05-15T10:59:03;9.52;;;3.60;;
17650;SDS011;26663;59.302;18.082;2023-05-15T11:02:19;3.45;;;3.20;;
17650;SDS011;26663;59.302;18.082;2023-05-15T11:05:26;7.45;;;3.00;;
17650;SDS011;26663;59.302;18.082;2023-05-15T11:08:32;9.43;;;3.30;;
17650;SDS011;26663;59.302;18.082;2023-05-15T11:11:53;8.25;;;3.42;;
17650;SDS011;26663;59.302;18.082;2023-05-15T11:15:18;10.43;;;3.42;;
17650;SDS011;26663;59.302;18.082;2023-05-15T11:18:26;7.55;;;3.30;;
17650;SDS011;26663;59.302;18.082;2023-05-15T11:21:32;6.95;;;3.15;;
17650;SDS011;26663;59.302;18.082;2023-05-15T11:24:46;4.68;;;3.47;;
17650;SDS011;26663;59.302;18.082;2023-05-15T11:27:53;4.40;;;4.00;;
17650;SDS011;26663;59.302;18.082;2023-05-15T11:30:59;17.45;;;3.35;;
17650;SDS011;26663;59.302;18.082;2023-05-15T11:34:09;3.38;;;3.00;;
17650;SDS011;26663;59.302;18.082;2023-05-15T11:37:17;3.45;;;2.97;;
17650;SDS011;26663;59.302;18.082;2023-05-15T11:40:22;7.70;;;3.30;;
17650;SDS011;26663;59.302;18.082;2023-05-15T11:43:29;9.40;;;3.20;;
17650;SDS011;26663;59.302;18.082;2023-05-15T11:46:35;6.05;;;2.90;;
17650;SDS011;26663;59.302;18.082;2023-05-15T11:49:40;3.20;;;3.03;;
17650;SDS011;26663;59.302;18.082;2023-05-15T11:52:48;5.95;;;3.28;;
17650;SDS011;26663;59.302;18.082;2023-05-15T11:55:53;7.88;;;3.00;;
17650;SDS011;26663;59.302;18.082;2023-05-15T11:58:58;7.13;;;3.42;;
17650;SDS011;26663;59.302;18.082;2023-05-15T12:02:04;3.45;;;3.25;;
17650;SDS011;26663;59.302;18.082;2023-05-15T12:05:10;5.15;;;2.92;;
17650;SDS011;26663;59.302;18.082;2023-05-15T12:08:16;3.45;;;3.13;;
17650;SDS011;26663;59.302;18.082;2023-05-15T12:11:22;7.72;;;3.53;;
17650;SDS011;26663;59.302;18.082;2023-05-15T12:14:27;3.58;;;3.25;;
17650;SDS011;26663;59.302;18.082;2023-05-15T12:17:33;4.55;;;3.20;;
17650;SDS011;26663;59.302;18.082;2023-05-15T12:20:40;3.67;;;3.22;;
17650;SDS011;26663;59.302;18.082;2023-05-15T12:23:50;6.13;;;3.35;;
17650;SDS011;26663;59.302;18.082;2023-05-15T12:27:09;3.33;;;3.05;;
17650;SDS011;26663;59.302;18.082;2023-05-15T12:30:15;8.95;;;3.50;;
17650;SDS011;26663;59.302;18.082;2023-05-15T12:33:20;3.72;;;3.08;;
17650;SDS011;26663;59.302;18.082;2023-05-15T12:36:26;3.35;;;3.15;;
17650;SDS011;26663;59.302;18.082;2023-05-15T12:39:33;3.88;;;3.53;;
17650;SDS011;26663;59.302;18.082;2023-05-15T12:42:40;25.63;;;3.95;;
17650;SDS011;26663;59.302;18.082;2023-05-15T12:45:46;3.22;;;2.80;;
17650;SDS011;26663;59.302;18.082;2023-05-15T12:48:56;8.95;;;3.03;;
17650;SDS011;26663;59.302;18.082;2023-05-15T12:52:06;6.68;;;3.15;;
17650;SDS011;26663;59.302;18.082;2023-05-15T12:55:16;7.78;;;2.95;;
17650;SDS011;26663;59.302;18.082;2023-05-15T12:58:22;7.60;;;3.20;;
17650;SDS011;26663;59.302;18.082;2023-05-15T13:01:28;20.13;;;3.70;;
17650;SDS011;26663;59.302;18.082;2023-05-15T13:04:33;4.68;;;3.00;;
17650;SDS011;26663;59.302;18.082;2023-05-15T13:07:39;4.18;;;3.10;;
17650;SDS011;26663;59.302;18.082;2023-05-15T13:10:52;8.75;;;3.17;;
17650;SDS011;26663;59.302;18.082;2023-05-15T13:13:59;3.22;;;2.92;;
17650;SDS011;26663;59.302;18.082;2023-05-15T13:17:11;9.00;;;3.40;;
17650;SDS011;26663;59.302;18.082;2023-05-15T13:20:18;4.15;;;3.00;;
17650;SDS011;26663;59.302;18.082;2023-05-15T13:23:23;4.68;;;3.13;;
17650;SDS011;26663;59.302;18.082;2023-05-15T13:26:30;5.50;;;2.88;;
17650;SDS011;26663;59.302;18.082;2023-05-15T13:29:35;3.60;;;3.30;;
17650;SDS011;26663;59.302;18.082;2023-05-15T13:32:41;4.55;;;3.20;;
17650;SDS011;26663;59.302;18.082;2023-05-15T13:35:46;5.65;;;3.35;;
17650;SDS011;26663;59.302;18.082;2023-05-15T13:38:51;3.63;;;3.15;;
17650;SDS011;26663;59.302;18.082;2023-05-15T13:41:58;4.55;;;3.20;;
17650;SDS011;26663;59.302;18.082;2023-05-15T13:45:03;5.50;;;3.38;;
17650;SDS011;26663;59.302;18.082;2023-05-15T13:48:10;3.95;;;3.08;;
17650;SDS011;26663;59.302;18.082;2023-05-15T13:51:15;4.13;;;2.92;;
17650;SDS011;26663;59.302;18.082;2023-05-15T13:54:20;4.47;;;3.30;;
17650;SDS011;26663;59.302;18.082;2023-05-15T13:57:27;3.63;;;3.33;;
17650;SDS011;26663;59.302;18.082;2023-05-15T14:00:32;3.40;;;3.28;;
17650;SDS011;26663;59.302;18.082;2023-05-15T14:03:37;3.58;;;3.28;;
17650;SDS011;26663;59.302;18.082;2023-05-15T14:06:42;5.68;;;3.35;;
17650;SDS011;26663;59.302;18.082;2023-05-15T14:09:47;3.63;;;3.20;;
17650;SDS011;26663;59.302;18.082;2023-05-15T14:12:54;3.85;;;3.55;;
17650;SDS011;26663;59.302;18.082;2023-05-15T14:16:02;4.25;;;3.33;;
17650;SDS011;26663;59.302;18.082;2023-05-15T14:19:08;3.35;;;2.92;;
17650;SDS011;26663;59.302;18.082;2023-05-15T14:22:13;3.30;;;3.03;;
17650;SDS011;26663;59.302;18.082;2023-05-15T14:25:18;4.70;;;3.10;;
17650;SDS011;26663;59.302;18.082;2023-05-15T14:28:24;6.13;;;3.45;;
17650;SDS011;26663;59.302;18.082;2023-05-15T14:31:29;8.15;;;3.22;;
17650;SDS011;26663;59.302;18.082;2023-05-15T14:34:34;4.80;;;3.45;;
17650;SDS011;26663;59.302;18.082;2023-05-15T14:37:39;8.00;;;3.10;;
17650;SDS011;26663;59.302;18.082;2023-05-15T14:40:45;5.43;;;3.25;;
17650;SDS011;26663;59.302;18.082;2023-05-15T14:43:51;7.68;;;3.17;;
17650;SDS011;26663;59.302;18.082;2023-05-15T14:47:06;6.68;;;3.17;;
17650;SDS011;26663;59.302;18.082;2023-05-15T14:50:11;4.18;;;3.42;;
17650;SDS011;26663;59.302;18.082;2023-05-15T14:53:17;5.47;;;3.00;;
17650;SDS011;26663;59.302;18.082;2023-05-15T14:56:22;4.97;;;3.05;;
17650;SDS011;26663;59.302;18.082;2023-05-15T14:59:29;6.25;;;3.00;;
17650;SDS011;26663;59.302;18.082;2023-05-15T15:02:34;3.58;;;3.13;;
17650;SDS011;26663;59.302;18.082;2023-05-15T15:05:39;3.80;;;3.10;;
17650;SDS011;26663;59.302;18.082;2023-05-15T15:08:44;16.83;;;3.60;;
17650;SDS011;26663;59.302;18.082;2023-05-15T15:11:49;4.47;;;3.00;;
17650;SDS011;26663;59.302;18.082;2023-05-15T15:14:56;10.38;;;2.70;;
17650;SDS011;26663;59.302;18.082;2023-05-15T15:18:01;5.25;;;3.70;;
17650;SDS011;26663;59.302;18.082;2023-05-15T15:21:06;11.10;;;3.55;;
17650;SDS011;26663;59.302;18.082;2023-05-15T15:24:11;5.90;;;3.53;;
17650;SDS011;26663;59.302;18.082;2023-05-15T15:27:16;5.05;;;3.22;;
17650;SDS011;26663;59.302;18.082;2023-05-15T15:30:23;4.95;;;3.50;;
17650;SDS011;26663;59.302;18.082;2023-05-15T15:33:28;4.68;;;3.05;;
17650;SDS011;26663;59.302;18.082;2023-05-15T15:36:33;5.05;;;3.30;;
17650;SDS011;26663;59.302;18.082;2023-05-15T15:39:40;12.20;;;4.32;;
17650;SDS011;26663;59.302;18.082;2023-05-15T15:42:46;7.47;;;4.05;;
17650;SDS011;26663;59.302;18.082;2023-05-15T15:45:53;5.60;;;3.25;;
17650;SDS011;26663;59.302;18.082;2023-05-15T15:48:58;6.72;;;3.35;;
17650;SDS011;26663;59.302;18.082;2023-05-15T15:52:06;3.70;;;3.40;;
17650;SDS011;26663;59.302;18.082;2023-05-15T15:55:11;7.25;;;3.17;;
17650;SDS011;26663;59.302;18.082;2023-05-15T15:58:16;6.55;;;3.17;;
17650;SDS011;26663;59.302;18.082;2023-05-15T16:01:23;7.97;;;4.00;;
17650;SDS011;26663;59.302;18.082;2023-05-15T16:04:28;6.82;;;3.70;;
17650;SDS011;26663;59.302;18.082;2023-05-15T16:07:34;19.38;;;3.50;;
17650;SDS011;26663;59.302;18.082;2023-05-15T16:10:39;8.13;;;3.25;;
17650;SDS011;26663;59.302;18.082;2023-05-15T16:13:44;5.82;;;2.97;;
17650;SDS011;26663;59.302;18.082;2023-05-15T16:16:50;13.73;;;3.90;;
17650;SDS011;26663;59.302;18.082;2023-05-15T16:19:56;3.80;;;3.50;;
17650;SDS011;26663;59.302;18.082;2023-05-15T16:23:00;7.30;;;3.33;;
17650;SDS011;26663;59.302;18.082;2023-05-15T16:26:07;3.80;;;3.50;;
17650;SDS011;26663;59.302;18.082;2023-05-15T16:29:12;3.13;;;2.92;;
17650;SDS011;26663;59.302;18.082;2023-05-15T16:32:19;5.50;;;3.10;;
17650;SDS011;26663;59.302;18.082;2023-05-15T16:35:24;6.88;;;3.17;;
17650;SDS011;26663;59.302;18.082;2023-05-15T16:38:30;7.53;;;3.85;;
17650;SDS011;26663;59.302;18.082;2023-05-15T16:41:35;14.48;;;4.90;;
17650;SDS011;26663;59.302;18.082;2023-05-15T16:44:40;5.22;;;4.05;;
17650;SDS011;26663;59.302;18.082;2023-05-15T16:47:46;11.25;;;4.30;;
17650;SDS011;26663;59.302;18.082;2023-05-15T16:50:51;15.00;;;4.10;;
17650;SDS011;26663;59.302;18.082;2023-05-15T16:53:56;5.35;;;4.85;;
17650;SDS011;26663;59.302;18.082;2023-05-15T16:57:01;9.48;;;4.43;;
17650;SDS011;26663;59.302;18.082;2023-05-15T17:00:11;4.45;;;4.10;;
17650;SDS011;26663;59.302;18.082;2023-05-15T17:03:18;6.82;;;3.67;;
17650;SDS011;26663;59.302;18.082;2023-05-15T17:06:23;7.13;;;3.70;;
17650;SDS011;26663;59.302;18.082;2023-05-15T17:09:28;4.10;;;3.80;;
17650;SDS011;26663;59.302;18.082;2023-05-15T17:12:34;3.88;;;3.67;;
17650;SDS011;26663;59.302;18.082;2023-05-15T17:15:39;7.53;;;4.20;;
17650;SDS011;26663;59.302;18.082;2023-05-15T17:18:46;5.43;;;3.88;;
17650;SDS011;26663;59.302;18.082;2023-05-15T17:21:51;4.60;;;3.83;;
17650;SDS011;26663;59.302;18.082;2023-05-15T17:24:56;4.40;;;3.90;;
17650;SDS011;26663;59.302;18.082;2023-05-15T17:28:01;9.70;;;3.70;;
17650;SDS011;26663;59.302;18.082;2023-05-15T17:31:09;12.05;;;3.80;;
17650;SDS011;26663;59.302;18.082;2023-05-15T17:34:16;9.48;;;4.10;;
17650;SDS011;26663;59.302;18.082;2023-05-15T17:37:21;3.95;;;3.50;;
17650;SDS011;26663;59.302;18.082;2023-05-15T17:40:26;3.78;;;3.55;;
17650;SDS011;26663;59.302;18.082;2023-05-15T17:43:31;11.40;;;3.83;;
17650;SDS011;26663;59.302;18.082;2023-05-15T17:46:36;6.95;;;3.47;;
17650;SDS011;26663;59.302;18.082;2023-05-15T17:49:42;6.43;;;3.65;;
17650;SDS011;26663;59.302;18.082;2023-05-15T17:52:47;9.68;;;4.10;;
17650;SDS011;26663;59.302;18.082;2023-05-15T17:55:52;6.70;;;3.67;;
17650;SDS011;26663;59.302;18.082;2023-05-15T17:58:58;8.40;;;3.83;;
17650;SDS011;26663;59.302;18.082;2023-05-15T18:02:03;13.40;;;4.35;;
17650;SDS011;26663;59.302;18.082;2023-05-15T18:05:11;9.68;;;3.90;;
17650;SDS011;26663;59.302;18.082;2023-05-15T18:08:16;4.22;;;3.15;;
17650;SDS011;26663;59.302;18.082;2023-05-15T18:11:21;3.90;;;3.60;;
17650;SDS011;26663;59.302;18.082;2023-05-15T18:14:26;4.10;;;3.80;;
17650;SDS011;26663;59.302;18.082;2023-05-15T18:17:31;6.22;;;4.35;;
17650;SDS011;26663;59.302;18.082;2023-05-15T18:20:38;9.52;;;4.50;;
17650;SDS011;26663;59.302;18.082;2023-05-15T18:23:43;14.63;;;4.60;;
17650;SDS011;26663;59.302;18.082;2023-05-15T18:26:48;7.88;;;4.25;;